Terminal Aerodrome Forecast
Issued by NWS

Home | Current Version | Previous Version | Graphics & Text | Print | Product List | Glossary On
Versions: 1 2 3 4 5 6 7 8 9 10 11 12 13 14
554
FTUS43 KICT 240107 AAA
TAFHUT
TAF AMD
KHUT 240107Z 2401/2424 01022G35KT P6SM SKC
     FM240300 33022G26KT P6SM OVC015
     FM241000 32017G25KT P6SM OVC022=

USA.gov is the U.S. government's official web portal to all federal, state and local government web resources and services.